Time;durP1;ratioP1;P1;durP2;ratioP2;P2;SDS_P1;SDS_P2;PMS_P1;PMS_P2;Temp;Humidity;BMP_temperature;BMP_pressure;BME280_temperature;BME280_humidity;BME280_pressure;Samples;Min_cycle;Max_cycle;Signal;HPM_P1;HPM_P2
2021/07/09 00:02:35;;;;;;;6.85;4.10;;;;;;;19.43;68.26;100417.16;130116;1093;22707;-66
2021/07/09 00:05:04;;;;;;;7.35;4.00;;;;;;;19.35;68.39;100404.80;130027;1093;114277;-66
2021/07/09 00:07:33;;;;;;;5.70;3.65;;;;;;;19.31;68.55;100411.23;130076;1093;23615;-65
2021/07/09 00:10:02;;;;;;;4.85;3.50;;;;;;;19.26;68.95;100411.28;130113;1093;22638;-66
2021/07/09 00:12:36;;;;;;;9.63;4.58;;;;;;;19.20;69.51;100407.73;130040;1092;114593;-66
2021/07/09 00:15:05;;;;;;;6.35;4.00;;;;;;;19.14;69.57;100414.45;130108;1093;22572;-66
2021/07/09 00:17:34;;;;;;;8.13;3.53;;;;;;;19.06;69.92;100407.61;130018;1093;113778;-66
2021/07/09 00:20:03;;;;;;;7.05;3.70;;;;;;;19.02;69.92;100409.34;130115;1093;23163;-66
2021/07/09 00:22:40;;;;;;;8.63;4.13;;;;;;;18.98;70.10;100411.03;130137;1092;22649;-66
2021/07/09 00:25:09;;;;;;;7.03;3.53;;;;;;;18.93;70.24;100413.00;130010;1093;114735;-66
2021/07/09 00:27:38;;;;;;;9.28;3.50;;;;;;;18.88;70.51;100413.08;130110;1092;22519;-66
2021/07/09 00:30:07;;;;;;;8.10;3.65;;;;;;;18.83;70.58;100405.66;130015;1093;114157;-65
2021/07/09 00:32:36;;;;;;;4.50;3.85;;;;;;;18.78;70.81;100399.34;130114;1092;22638;-65
2021/07/09 00:35:05;;;;;;;10.05;3.60;;;;;;;18.72;70.67;100406.88;130033;1093;114096;-66
2021/07/09 00:37:34;;;;;;;10.65;4.15;;;;;;;18.67;70.91;100402.21;130135;1092;22660;-65
2021/07/09 00:40:05;;;;;;;6.58;3.93;;;;;;;18.62;71.28;100407.77;130139;1093;22688;-66
2021/07/09 00:42:34;;;;;;;8.08;4.03;;;;;;;18.62;71.39;100404.19;130008;1092;113823;-66
2021/07/09 00:45:07;;;;;;;7.90;4.55;;;;;;;18.58;71.52;100397.59;130123;1092;22580;-66
2021/07/09 00:47:36;;;;;;;9.03;4.28;;;;;;;18.52;71.44;100395.97;129998;1092;113751;-66
2021/07/09 00:50:06;;;;;;;8.45;4.13;;;;;;;18.47;71.88;100399.59;130120;1093;22543;-65
2021/07/09 00:52:35;;;;;;;6.78;4.35;;;;;;;18.41;71.94;100406.28;130113;1093;22628;-66
2021/07/09 00:55:05;;;;;;;6.85;3.73;;;;;;;18.35;72.04;100405.48;130009;1093;113822;-66
2021/07/09 00:57:37;;;;;;;14.13;4.10;;;;;;;18.29;72.34;100398.38;130087;1093;22529;-65
2021/07/09 01:00:07;;;;;;;8.28;4.30;;;;;;;18.26;72.50;100406.39;129957;1093;114064;-66
2021/07/09 01:02:36;;;;;;;12.65;4.15;;;;;;;18.22;72.51;100397.03;130107;1093;23079;-65
2021/07/09 01:05:07;;;;;;;9.53;4.80;;;;;;;18.18;72.71;100395.98;130015;1093;114046;-65
2021/07/09 01:07:50;;;;;;;6.18;4.13;;;;;;;18.15;72.94;100402.89;130140;1093;22625;-65
2021/07/09 01:10:41;;;;;;;6.63;4.38;;;;;;;18.12;72.97;100397.94;130106;1090;23033;-65
2021/07/09 01:13:10;;;;;;;10.23;5.28;;;;;;;18.09;73.08;100390.23;129996;1093;114216;-65
2021/07/09 01:15:41;;;;;;;6.40;3.85;;;;;;;18.05;73.34;100394.67;130131;1093;22575;-66
2021/07/09 01:18:10;;;;;;;7.73;4.03;;;;;;;18.03;73.51;100396.91;130021;1093;113596;-66
2021/07/09 01:20:59;;;;;;;10.08;4.05;;;;;;;17.99;73.69;100390.31;130045;1093;22635;-66
2021/07/09 01:23:28;;;;;;;9.80;3.98;;;;;;;17.97;73.83;100395.28;130016;1093;114101;-66
2021/07/09 01:25:57;;;;;;;5.85;3.95;;;;;;;17.94;73.92;100395.84;130117;1092;22636;-65
2021/07/09 01:28:26;;;;;;;8.33;4.33;;;;;;;17.93;74.09;100391.44;130153;1092;22557;-66
2021/07/09 01:30:54;;;;;;;6.25;3.95;;;;;;;17.94;73.85;100391.16;130011;1092;113800;-66
2021/07/09 01:33:23;;;;;;;5.95;3.98;;;;;;;17.91;73.84;100383.45;130067;1093;22670;-66
2021/07/09 01:36:04;;;;;;;8.00;4.03;;;;;;;17.88;73.96;100385.98;129995;1092;113964;-65
2021/07/09 01:38:34;;;;;;;5.93;4.47;;;;;;;17.85;74.03;100398.40;130115;1093;22657;-65
2021/07/09 01:41:04;;;;;;;9.05;4.48;;;;;;;17.85;74.15;100394.81;130038;1093;113626;-66
2021/07/09 01:43:33;;;;;;;12.78;5.45;;;;;;;17.85;73.99;100387.37;130127;1091;22580;-66
2021/07/09 01:46:07;;;;;;;9.40;4.63;;;;;;;17.82;73.80;100385.17;130124;1092;22673;-66
2021/07/09 01:48:35;;;;;;;5.90;4.18;;;;;;;17.81;73.94;100379.94;130011;1093;113794;-66
2021/07/09 01:51:04;;;;;;;6.83;4.33;;;;;;;17.78;73.95;100384.09;130131;1093;23426;-66
2021/07/09 01:53:33;;;;;;;6.73;3.83;;;;;;;17.76;74.02;100377.20;130020;1093;113923;-66
2021/07/09 01:56:03;;;;;;;6.25;4.18;;;;;;;17.76;74.21;100388.23;130111;1093;22645;-66
2021/07/09 01:58:31;;;;;;;6.58;4.58;;;;;;;17.73;74.03;100384.14;130099;1091;23053;-66
2021/07/09 02:01:00;;;;;;;11.85;3.70;;;;;;;17.70;74.00;100384.70;129992;1091;113755;-66
2021/07/09 02:03:30;;;;;;;9.33;4.13;;;;;;;17.68;74.29;100389.66;130123;1092;22649;-65
2021/07/09 02:05:58;;;;;;;5.40;4.08;;;;;;;17.69;74.28;100387.73;129989;1093;113616;-65
2021/07/09 02:08:27;;;;;;;8.73;4.50;;;;;;;17.70;74.17;100394.90;130103;1092;22704;-66
2021/07/09 02:10:56;;;;;;;9.53;4.25;;;;;;;17.71;74.25;100382.77;130096;1093;23344;-66
2021/07/09 02:13:25;;;;;;;8.98;4.43;;;;;;;17.72;74.37;100388.00;129986;1092;115231;-66
2021/07/09 02:15:54;;;;;;;11.65;4.40;;;;;;;17.73;74.16;100386.89;130119;1091;22544;-66
2021/07/09 02:18:23;;;;;;;9.53;4.10;;;;;;;17.74;74.41;100399.57;130020;1090;114194;-66
2021/07/09 02:20:52;;;;;;;11.53;4.55;;;;;;;17.75;74.43;100392.09;130118;1091;22633;-66
2021/07/09 02:23:21;;;;;;;8.80;4.50;;;;;;;17.74;74.33;100391.30;129993;1093;114149;-66
2021/07/09 02:25:50;;;;;;;10.58;4.33;;;;;;;17.75;74.41;100401.19;130132;1090;22595;-66
2021/07/09 02:28:19;;;;;;;10.45;4.63;;;;;;;17.75;74.33;100398.43;130115;1090;22640;-66
2021/07/09 02:30:48;;;;;;;17.38;4.73;;;;;;;17.76;74.60;100405.59;129976;1090;114315;-66
2021/07/09 02:33:17;;;;;;;12.20;4.55;;;;;;;17.75;74.71;100417.73;130101;1090;22539;-66
2021/07/09 02:35:46;;;;;;;13.20;4.58;;;;;;;17.76;74.59;100410.28;129999;1091;114172;-65
2021/07/09 02:38:14;;;;;;;11.90;5.05;;;;;;;17.77;74.71;100407.25;130123;1090;22574;-65
2021/07/09 02:40:44;;;;;;;12.33;4.20;;;;;;;17.80;74.90;100392.91;126956;1093;24582;-65
2021/07/09 02:43:13;;;;;;;8.50;4.43;;;;;;;17.84;74.95;100401.44;125351;1091;114381;-64
2021/07/09 02:45:43;;;;;;;12.33;4.63;;;;;;;17.86;75.22;100399.22;130101;1090;23541;-65
2021/07/09 02:48:17;;;;;;;8.15;4.63;;;;;;;17.90;75.61;100395.59;129997;1092;114492;-65
2021/07/09 02:50:50;;;;;;;10.95;4.85;;;;;;;17.97;75.78;100396.11;130140;1092;22580;-65
2021/07/09 02:53:19;;;;;;;17.85;4.98;;;;;;;18.05;75.68;100396.59;130038;1090;114284;-66
2021/07/09 02:55:49;;;;;;;14.73;4.93;;;;;;;18.12;75.85;100397.12;130105;1090;23316;-65
2021/07/09 02:58:17;;;;;;;11.53;4.40;;;;;;;18.18;75.25;100402.30;130138;1090;22497;-65
2021/07/09 03:00:46;;;;;;;9.83;5.73;;;;;;;18.26;74.60;100393.42;130035;1090;114144;-65
2021/07/09 03:03:15;;;;;;;7.78;4.80;;;;;;;18.41;74.76;100394.41;130145;1090;22636;-66
2021/07/09 03:05:44;;;;;;;11.33;5.60;;;;;;;18.54;74.83;100394.58;130010;1090;114362;-65
2021/07/09 03:08:13;;;;;;;11.58;4.50;;;;;;;18.66;74.90;100388.70;130145;1090;22553;-65
2021/07/09 03:10:42;;;;;;;5.80;4.70;;;;;;;18.80;74.14;100397.13;130157;1090;22551;-65
2021/07/09 03:13:12;;;;;;;9.38;4.65;;;;;;;18.93;73.71;100390.91;130050;1090;114166;-65
2021/07/09 03:15:41;;;;;;;9.85;4.78;;;;;;;19.07;73.61;100394.63;130122;1090;22560;-65
2021/07/09 03:18:10;;;;;;;8.20;4.50;;;;;;;19.21;73.47;100389.22;130028;1090;113974;-65
2021/07/09 03:20:52;;;;;;;7.28;4.65;;;;;;;19.34;72.79;100383.80;130090;1090;22536;-65
2021/07/09 03:23:21;;;;;;;9.58;4.55;;;;;;;19.49;72.55;100387.50;130007;1093;114362;-66
2021/07/09 03:25:50;;;;;;;9.85;4.70;;;;;;;19.62;72.63;100387.63;130121;1089;23122;-66
2021/07/09 03:28:19;;;;;;;7.83;4.68;;;;;;;19.75;72.22;100386.09;130130;1090;22564;-65
2021/07/09 03:30:48;;;;;;;6.30;4.10;;;;;;;19.89;71.28;100394.47;130010;1090;113786;-66
2021/07/09 03:33:18;;;;;;;8.58;4.43;;;;;;;20.02;69.98;100396.49;130139;1093;23371;-67
2021/07/09 03:35:47;;;;;;;9.28;4.58;;;;;;;20.19;69.34;100393.20;130031;1090;113820;-66
2021/07/09 03:38:16;;;;;;;10.30;4.48;;;;;;;20.37;69.16;100381.29;130111;1090;22635;-66
2021/07/09 03:40:46;;;;;;;9.38;4.50;;;;;;;20.54;69.02;100381.56;130093;1090;22662;-66
2021/07/09 03:43:16;;;;;;;7.90;3.73;;;;;;;20.69;68.27;100389.60;130046;1090;115233;-67
2021/07/09 03:45:44;;;;;;;8.25;4.20;;;;;;;20.84;67.56;100391.28;130117;1090;22513;-65
2021/07/09 03:48:13;;;;;;;6.70;3.98;;;;;;;20.99;67.32;100393.77;129999;1093;113983;-65
2021/07/09 03:50:45;;;;;;;11.28;4.05;;;;;;;21.15;65.76;100400.66;130114;1093;22512;-66
2021/07/09 03:53:14;;;;;;;7.80;3.80;;;;;;;21.29;64.56;100397.92;129994;1093;114190;-66
2021/07/09 03:55:43;;;;;;;7.68;3.28;;;;;;;21.45;62.94;100404.81;130108;1093;22537;-66
2021/07/09 03:58:12;;;;;;;10.45;3.20;;;;;;;21.65;60.91;100400.77;130129;1092;23287;-66
2021/07/09 04:00:43;;;;;;;17.00;3.58;;;;;;;21.84;59.63;100398.69;130028;1092;114151;-66
2021/07/09 04:03:12;;;;;;;12.30;3.75;;;;;;;21.99;58.38;100396.70;130117;1093;22689;-65
2021/07/09 04:05:41;;;;;;;8.35;3.15;;;;;;;22.14;58.17;100393.60;130020;1093;114252;-65
2021/07/09 04:08:10;;;;;;;11.18;4.78;;;;;;;22.26;56.84;100393.04;130113;1092;22564;-65
2021/07/09 04:10:59;;;;;;;11.13;4.00;;;;;;;22.38;55.78;100396.07;130132;1093;22660;-66
2021/07/09 04:13:30;;;;;;;12.80;6.00;;;;;;;22.48;57.31;100402.22;129974;1091;113986;-66
2021/07/09 04:15:59;;;;;;;12.63;6.83;;;;;;;22.55;57.59;100401.75;130061;1092;23341;-66
2021/07/09 04:18:28;;;;;;;13.53;6.83;;;;;;;22.62;57.82;100398.55;130021;1090;114161;-66
2021/07/09 04:20:57;;;;;;;12.25;6.98;;;;;;;22.70;58.63;100398.59;130101;1092;22578;-65
2021/07/09 04:23:25;;;;;;;15.08;7.93;;;;;;;22.76;58.01;100391.80;130020;1093;114384;-65
2021/07/09 04:25:54;;;;;;;29.98;8.40;;;;;;;22.83;58.45;100394.94;130151;1092;23305;-66
2021/07/09 04:28:23;;;;;;;18.33;7.63;;;;;;;22.89;56.67;100392.85;130104;1093;22708;-65
2021/07/09 04:30:54;;;;;;;12.63;7.38;;;;;;;22.97;56.77;100392.06;130015;1093;114145;-65
2021/07/09 04:33:23;;;;;;;15.83;6.93;;;;;;;23.06;56.31;100392.13;130093;1093;22583;-65
2021/07/09 04:35:52;;;;;;;17.83;8.48;;;;;;;23.13;57.87;100390.52;130008;1093;114119;-66
2021/07/09 04:38:37;;;;;;;11.05;6.73;;;;;;;23.21;56.54;100391.70;130086;1093;23541;-66
2021/07/09 04:41:06;;;;;;;17.23;6.50;;;;;;;23.27;57.52;100393.19;130107;1091;22503;-65
2021/07/09 04:43:38;;;;;;;13.85;5.28;;;;;;;23.33;56.83;100397.47;130029;1093;113767;-65
2021/07/09 04:46:07;;;;;;;11.68;5.18;;;;;;;23.39;54.88;100401.73;130105;1091;22542;-65
2021/07/09 04:48:37;;;;;;;17.00;5.65;;;;;;;23.44;54.39;100396.03;130028;1093;114158;-65
2021/07/09 04:51:06;;;;;;;13.45;6.10;;;;;;;23.50;54.42;100400.31;130133;1093;22640;-65
2021/07/09 04:53:35;;;;;;;17.85;5.38;;;;;;;23.57;54.23;100397.08;130005;1093;114322;-65
2021/07/09 04:56:05;;;;;;;22.58;6.13;;;;;;;23.62;54.54;100394.16;130100;1093;22622;-65
2021/07/09 04:58:34;;;;;;;20.40;6.00;;;;;;;23.68;54.39;100390.06;130139;1092;22599;-66
2021/07/09 05:01:03;;;;;;;21.75;6.15;;;;;;;23.77;54.28;100398.44;130008;1093;113940;-65
2021/07/09 05:03:32;;;;;;;12.83;5.30;;;;;;;23.84;54.03;100401.55;130083;1093;22669;-65
2021/07/09 05:06:01;;;;;;;12.58;4.20;;;;;;;23.90;53.45;100400.26;130027;1093;114042;-65
2021/07/09 05:08:30;;;;;;;14.65;4.65;;;;;;;24.01;51.45;100407.14;130103;1092;22557;-65
2021/07/09 05:10:59;;;;;;;10.40;3.25;;;;;;;24.11;50.34;100404.03;130123;1091;22536;-65
2021/07/09 05:13:27;;;;;;;6.80;3.40;;;;;;;24.20;48.34;100407.66;130005;1093;114071;-66
2021/07/09 05:15:56;;;;;;;16.58;4.65;;;;;;;24.34;47.74;100401.13;130137;1092;22591;-65
2021/07/09 05:18:25;;;;;;;8.88;2.88;;;;;;;24.46;47.20;100398.50;130002;1092;114650;-65
2021/07/09 05:20:54;;;;;;;12.88;3.38;;;;;;;24.58;46.66;100396.67;130093;1092;22645;-65
2021/07/09 05:23:23;;;;;;;11.03;2.65;;;;;;;24.75;46.47;100393.04;129969;1093;114108;-65
2021/07/09 05:25:54;;;;;;;8.58;3.25;;;;;;;24.99;46.09;100400.86;130119;1093;23199;-65
2021/07/09 05:28:23;;;;;;;9.23;2.78;;;;;;;25.25;45.98;100401.58;130123;1090;22580;-64
2021/07/09 05:30:52;;;;;;;6.10;2.80;;;;;;;25.61;44.41;100401.13;129975;1090;113968;-65
2021/07/09 05:33:21;;;;;;;10.03;3.20;;;;;;;26.00;43.46;100402.66;130109;1091;23823;-64
2021/07/09 05:35:50;;;;;;;6.03;2.88;;;;;;;26.37;42.24;100395.34;130010;1090;115357;-65
2021/07/09 05:38:19;;;;;;;6.75;2.90;;;;;;;26.72;42.14;100386.59;130097;1091;22613;-64
2021/07/09 05:40:48;;;;;;;10.13;3.13;;;;;;;27.02;41.79;100381.69;130135;1093;23372;-63
2021/07/09 05:43:19;;;;;;;9.78;2.83;;;;;;;27.39;40.45;100388.16;129995;1093;114083;-62
2021/07/09 05:45:48;;;;;;;8.30;3.00;;;;;;;27.72;40.67;100386.05;130025;1092;22568;-65
2021/07/09 05:48:17;;;;;;;12.25;2.73;;;;;;;28.03;40.00;100376.19;129730;1093;114534;-65
2021/07/09 05:50:46;;;;;;;9.85;3.10;;;;;;;28.35;38.60;100383.59;129929;1093;22547;-66
2021/07/09 05:53:14;;;;;;;6.68;2.38;;;;;;;28.65;39.56;100377.61;129823;1093;114270;-66
2021/07/09 05:55:46;;;;;;;7.25;2.30;;;;;;;28.85;37.30;100376.61;129897;1092;22572;-66
2021/07/09 05:58:15;;;;;;;9.63;2.25;;;;;;;28.97;37.17;100376.52;129878;1092;22958;-66
2021/07/09 06:00:44;;;;;;;11.35;2.38;;;;;;;29.08;36.28;100376.80;129704;1093;113402;-65
2021/07/09 06:03:13;;;;;;;11.45;3.20;;;;;;;29.12;36.32;100386.94;129843;1093;22581;-64
2021/07/09 06:05:42;;;;;;;7.18;2.43;;;;;;;29.09;35.30;100375.62;129668;1093;114356;-63
2021/07/09 06:08:11;;;;;;;7.48;2.53;;;;;;;28.98;36.07;100369.73;129776;1093;23329;-65
2021/07/09 06:10:40;;;;;;;7.28;2.80;;;;;;;28.87;36.74;100385.45;129813;1093;22526;-65
2021/07/09 06:13:10;;;;;;;8.00;3.28;;;;;;;28.75;36.40;100382.69;129681;1093;114209;-64
2021/07/09 06:15:39;;;;;;;5.80;2.25;;;;;;;28.62;36.24;100376.33;129815;1093;22581;-64
2021/07/09 06:18:23;;;;;;;5.90;1.95;;;;;;;28.46;36.05;100378.27;129758;1093;115277;-64
2021/07/09 06:20:52;;;;;;;6.38;2.35;;;;;;;28.29;36.45;100379.39;130085;1090;22510;-64
2021/07/09 06:23:21;;;;;;;3.28;1.80;;;;;;;28.06;36.23;100378.28;130010;1090;114246;-65
2021/07/09 06:25:50;;;;;;;16.08;3.15;;;;;;;27.86;36.21;100371.66;130108;1093;22557;-64
2021/07/09 06:28:19;;;;;;;9.30;2.83;;;;;;;27.76;37.24;100378.58;130128;1093;23169;-65
2021/07/09 06:30:48;;;;;;;9.45;2.75;;;;;;;27.68;36.44;100382.34;130030;1093;114122;-64
2021/07/09 06:33:17;;;;;;;4.10;2.10;;;;;;;27.57;35.98;100381.16;130113;1093;23281;-64
2021/07/09 06:35:46;;;;;;;10.95;2.38;;;;;;;27.48;36.76;100376.83;130030;1093;114039;-64
2021/07/09 06:38:15;;;;;;;5.48;2.10;;;;;;;27.38;36.11;100381.73;130063;1093;23328;-64
2021/07/09 06:40:46;;;;;;;5.50;2.93;;;;;;;27.33;37.03;100381.95;126848;1091;22776;-63
2021/07/09 06:43:14;;;;;;;4.23;2.15;;;;;;;27.29;35.97;100380.20;125196;1092;114101;-62
2021/07/09 06:45:43;;;;;;;6.48;2.40;;;;;;;27.19;36.16;100381.48;129937;1093;22631;-64
2021/07/09 06:48:12;;;;;;;2.68;1.93;;;;;;;27.15;36.03;100377.73;129991;1091;114477;-64
2021/07/09 06:50:41;;;;;;;9.68;2.25;;;;;;;27.14;36.60;100370.51;130123;1092;23408;-64
2021/07/09 06:53:10;;;;;;;3.38;1.80;;;;;;;27.14;37.17;100378.91;130138;1091;22540;-64
2021/07/09 06:55:38;;;;;;;2.63;2.08;;;;;;;27.18;36.19;100374.25;130034;1090;113850;-64
2021/07/09 06:58:07;;;;;;;4.38;2.13;;;;;;;27.23;37.00;100381.61;130122;1090;22663;-64
2021/07/09 07:00:37;;;;;;;6.15;2.83;;;;;;;27.23;37.22;100374.03;129981;1090;114079;-64
2021/07/09 07:03:09;;;;;;;23.88;9.65;;;;;;;27.25;37.69;100380.10;130069;1088;23456;-63
2021/07/09 07:05:38;;;;;;;8.65;3.40;;;;;;;27.27;37.22;100374.95;130013;1090;114477;-64
2021/07/09 07:08:18;;;;;;;12.38;2.98;;;;;;;27.24;36.97;100369.25;130145;1090;22553;-63
2021/07/09 07:10:49;;;;;;;5.98;2.50;;;;;;;27.26;38.19;100373.34;130089;1092;22595;-63
2021/07/09 07:13:19;;;;;;;12.43;2.38;;;;;;;27.26;37.75;100372.52;130018;1090;113852;-64
2021/07/09 07:15:48;;;;;;;5.23;2.65;;;;;;;27.27;37.76;100380.54;130139;1090;22513;-64
2021/07/09 07:18:18;;;;;;;5.10;1.90;;;;;;;27.27;35.53;100372.15;130002;1090;113964;-63
2021/07/09 07:20:49;;;;;;;3.00;1.85;;;;;;;27.27;36.69;100376.95;130105;1092;22625;-63
2021/07/09 07:23:19;;;;;;;4.55;2.23;;;;;;;27.27;36.79;100369.34;129992;1092;115052;-63
2021/07/09 07:25:49;;;;;;;8.13;2.10;;;;;;;27.29;36.89;100369.82;130094;1093;22737;-63
2021/07/09 07:28:18;;;;;;;5.00;2.80;;;;;;;27.26;35.17;100361.33;130010;1093;23236;-63
2021/07/09 07:31:10;;;;;;;2.85;2.10;;;;;;;27.17;35.77;100367.02;129944;1092;114031;-63
2021/07/09 07:33:40;;;;;;;7.85;2.20;;;;;;;27.13;36.07;100356.86;130134;1093;23524;-63
2021/07/09 07:36:17;;;;;;;7.20;2.35;;;;;;;27.12;35.80;100353.28;129984;1093;113858;-63
2021/07/09 07:38:46;;;;;;;6.35;2.70;;;;;;;27.12;35.69;100346.88;130124;1093;22611;-63
2021/07/09 07:41:15;;;;;;;18.93;3.63;;;;;;;27.11;36.45;100346.05;130149;1093;23155;-63
2021/07/09 07:43:45;;;;;;;3.15;2.18;;;;;;;27.11;35.68;100348.84;130027;1092;113885;-63
2021/07/09 07:46:15;;;;;;;5.38;2.88;;;;;;;27.09;35.76;100345.58;130136;1093;22637;-63
2021/07/09 07:48:44;;;;;;;5.13;2.40;;;;;;;27.10;35.50;100347.21;129993;1093;114345;-63
2021/07/09 07:51:13;;;;;;;7.65;3.55;;;;;;;27.07;36.03;100351.52;130098;1091;22531;-64
2021/07/09 07:53:42;;;;;;;3.85;2.03;;;;;;;27.03;35.33;100350.58;130046;1093;113919;-63
2021/07/09 07:56:11;;;;;;;2.60;2.10;;;;;;;27.01;35.71;100349.28;130114;1093;22549;-63
2021/07/09 07:58:42;;;;;;;4.35;1.90;;;;;;;27.01;35.84;100346.48;129878;1092;22559;-63
2021/07/09 08:01:11;;;;;;;7.38;2.60;;;;;;;27.03;37.04;100341.36;129915;1092;113927;-62
2021/07/09 08:03:44;;;;;;;8.43;2.93;;;;;;;27.05;36.09;100351.05;130101;1093;23027;-63
2021/07/09 08:06:13;;;;;;;23.73;3.45;;;;;;;27.05;36.25;100358.63;130010;1090;114951;-63
2021/07/09 08:08:43;;;;;;;15.60;3.50;;;;;;;27.04;37.50;100349.41;130094;1090;22690;-63
2021/07/09 08:11:12;;;;;;;8.50;3.05;;;;;;;27.05;36.86;100342.66;130119;1090;22527;-63
2021/07/09 08:13:41;;;;;;;6.90;3.70;;;;;;;27.05;38.05;100339.04;130014;1090;113082;-63
2021/07/09 08:16:11;;;;;;;6.20;2.30;;;;;;;27.07;37.55;100339.52;130129;1090;22632;-63
2021/07/09 08:18:40;;;;;;;5.35;2.58;;;;;;;27.10;37.50;100334.05;130015;1090;113978;-63
2021/07/09 08:21:09;;;;;;;7.23;2.60;;;;;;;27.13;38.24;100328.89;130114;1093;22551;-64
2021/07/09 08:23:39;;;;;;;7.70;3.18;;;;;;;27.16;38.04;100328.20;129948;1092;114078;-63
2021/07/09 08:26:08;;;;;;;8.78;2.40;;;;;;;27.19;38.05;100322.72;130098;1091;23311;-64
2021/07/09 08:28:37;;;;;;;6.45;3.35;;;;;;;27.19;37.98;100322.72;130085;1093;23102;-64
2021/07/09 08:31:06;;;;;;;12.65;3.25;;;;;;;27.20;38.31;100317.95;129999;1093;114315;-64
2021/07/09 08:33:35;;;;;;;3.43;2.03;;;;;;;27.24;37.75;100311.31;130106;1092;22528;-64
2021/07/09 08:36:09;;;;;;;7.65;2.90;;;;;;;27.24;35.72;100314.11;130011;1093;113781;-64
2021/07/09 08:38:38;;;;;;;5.80;3.00;;;;;;;27.17;36.94;100313.86;130100;1091;23531;-64
2021/07/09 08:41:06;;;;;;;13.38;4.40;;;;;;;27.16;37.29;100308.61;130098;1092;22554;-64
2021/07/09 08:43:38;;;;;;;7.83;2.80;;;;;;;27.20;37.02;100309.55;130020;1092;114068;-64
2021/07/09 08:46:07;;;;;;;5.23;2.70;;;;;;;27.24;36.56;100310.49;130086;1091;22576;-64
2021/07/09 08:48:42;;;;;;;6.77;2.57;;;;;;;27.23;37.73;100298.48;130027;1090;113943;-64
2021/07/09 08:51:11;;;;;;;2.78;2.00;;;;;;;27.25;37.84;100295.34;130076;1090;22484;-64
2021/07/09 08:53:40;;;;;;;5.03;2.28;;;;;;;27.25;36.09;100298.95;130000;1090;114329;-64
2021/07/09 08:56:09;;;;;;;9.88;2.90;;;;;;;27.26;37.29;100306.19;130112;1090;23467;-65
2021/07/09 08:58:42;;;;;;;8.23;3.10;;;;;;;27.28;36.67;100289.02;130071;1090;22763;-65
2021/07/09 09:01:11;;;;;;;5.40;2.40;;;;;;;27.30;37.36;100293.09;129991;1093;114363;-65
2021/07/09 09:03:40;;;;;;;5.65;2.50;;;;;;;27.33;37.99;100277.59;130111;1092;22587;-65
2021/07/09 09:06:15;;;;;;;8.43;3.30;;;;;;;27.37;37.53;100281.33;130010;1090;113970;-64
2021/07/09 09:08:45;;;;;;;4.88;2.70;;;;;;;27.36;36.13;100286.11;130110;1093;22612;-65
2021/07/09 09:11:14;;;;;;;3.13;2.75;;;;;;;27.35;36.57;100278.88;130116;1093;22502;-65
2021/07/09 09:13:43;;;;;;;4.68;2.78;;;;;;;27.36;36.89;100280.52;130010;1093;114261;-65
2021/07/09 09:16:15;;;;;;;4.85;2.10;;;;;;;27.38;36.92;100280.98;130124;1090;22589;-65
2021/07/09 09:18:49;;;;;;;4.20;2.65;;;;;;;27.41;37.83;100274.65;129963;1090;113783;-65
2021/07/09 09:21:19;;;;;;;4.90;2.80;;;;;;;27.46;37.99;100284.80;130085;1093;23113;-65
2021/07/09 09:23:51;;;;;;;2.75;2.25;;;;;;;27.50;39.02;100282.11;129940;1090;113986;-65
2021/07/09 09:26:50;;;;;;;4.93;2.35;;;;;;;27.56;37.74;100283.48;130094;1090;22579;-65
2021/07/09 09:29:25;;;;;;;4.60;2.58;;;;;;;27.62;37.14;100287.72;130066;1090;22518;-65
2021/07/09 09:31:59;;;;;;;4.88;2.40;;;;;;;27.63;37.54;100273.37;129970;1090;113725;-67
2021/07/09 09:34:44;;;;;;;6.88;2.70;;;;;;;27.65;37.95;100282.23;130084;1090;22515;-66
2021/07/09 09:37:19;;;;;;;3.23;2.60;;;;;;;27.71;37.32;100271.58;129936;1092;114176;-66
2021/07/09 09:39:48;;;;;;;4.88;2.63;;;;;;;27.71;37.57;100272.39;130101;1090;22746;-67
2021/07/09 09:42:25;;;;;;;11.68;2.65;;;;;;;27.73;36.73;100280.45;129907;1093;114323;-66
2021/07/09 09:44:59;;;;;;;6.40;2.70;;;;;;;27.70;37.22;100270.77;130081;1090;22554;-67
2021/07/09 09:47:35;;;;;;;7.58;3.03;;;;;;;27.69;36.41;100268.34;130108;1090;22656;-67
2021/07/09 09:50:08;;;;;;;4.43;2.17;;;;;;;27.71;36.62;100279.98;130010;1090;113663;-67
2021/07/09 09:52:39;;;;;;;2.83;2.05;;;;;;;27.71;36.55;100272.39;130125;1093;22656;-66
2021/07/09 09:55:15;;;;;;;4.88;2.33;;;;;;;27.67;36.82;100260.30;130002;1093;113994;-67
2021/07/09 09:57:44;;;;;;;9.18;2.35;;;;;;;27.67;37.18;100265.08;130129;1091;22608;-66
2021/07/09 10:00:22;;;;;;;3.05;2.70;;;;;;;27.67;35.99;100260.30;130007;1093;114213;-66
2021/07/09 10:03:02;;;;;;;;;;;;;;;27.67;35.57;100268.70;130146;1092;22553;-67
2021/07/09 10:05:38;;;;;;;4.53;2.10;;;;;;;27.63;36.83;100250.97;130034;1090;21260;-66
2021/07/09 10:08:24;;;;;;;4.88;2.75;;;;;;;27.72;36.71;100268.42;129977;1090;116496;-66
2021/07/09 10:11:13;;;;;;;4.38;2.70;;;;;;;27.73;36.69;100255.24;130125;1090;22637;-66
2021/07/09 10:13:42;;;;;;;3.33;2.70;;;;;;;27.68;36.52;100259.13;129942;1093;113939;-67
2021/07/09 10:18:02;;;;;;;5.43;2.80;;;;;;;27.67;36.96;100257.50;125516;1093;24421;-67
2021/07/09 10:20:33;;;;;;;4.83;2.95;;;;;;;27.69;37.58;100248.75;125346;1093;25043;-66
2021/07/09 10:23:02;;;;;;;6.95;2.45;;;;;;;27.72;39.05;100236.81;130084;1093;22654;-64
2021/07/09 10:25:30;;;;;;;4.88;2.18;;;;;;;27.78;39.88;100229.80;129754;1093;113433;-65
2021/07/09 10:27:59;;;;;;;4.27;2.53;;;;;;;27.85;38.51;100229.17;130093;1093;22560;-64
2021/07/09 10:30:44;;;;;;;6.75;2.28;;;;;;;27.90;38.45;100232.55;129713;1093;113765;-65
2021/07/09 10:33:35;;;;;;;4.65;2.53;;;;;;;27.95;39.07;100231.48;130089;1093;22661;-64
2021/07/09 10:36:06;;;;;;;3.23;2.53;;;;;;;27.97;38.07;100235.56;129915;1093;113811;-65
2021/07/09 10:38:40;;;;;;;5.60;2.88;;;;;;;27.99;36.85;100226.80;130004;1093;22599;-65
2021/07/09 10:41:13;;;;;;;13.28;2.70;;;;;;;27.98;36.62;100225.98;129755;1093;22583;-66
2021/07/09 10:43:42;;;;;;;7.75;2.68;;;;;;;28.01;36.29;100228.05;129653;1093;114324;-63
2021/07/09 10:46:13;;;;;;;5.30;2.28;;;;;;;27.98;35.25;100220.38;129811;1093;22545;-65
2021/07/09 10:48:41;;;;;;;4.30;2.63;;;;;;;27.95;36.23;100220.27;129970;1092;114759;-66
2021/07/09 10:51:10;;;;;;;4.85;2.70;;;;;;;27.94;37.17;100213.86;130019;1093;22575;-64
2021/07/09 10:53:40;;;;;;;4.55;2.50;;;;;;;27.95;37.59;100207.08;130065;1092;24233;-66
2021/07/09 10:56:13;;;;;;;7.88;2.85;;;;;;;27.97;38.48;100203.92;129903;1093;113880;-66
2021/07/09 10:58:44;;;;;;;3.45;2.83;;;;;;;28.01;38.46;100208.44;130059;1093;22546;-65
2021/07/09 11:01:21;;;;;;;3.43;2.40;;;;;;;28.04;37.89;100210.53;129925;1093;113827;-66
2021/07/09 11:03:54;;;;;;;5.48;2.60;;;;;;;28.05;37.92;100203.75;130069;1093;22567;-66
2021/07/09 11:06:38;;;;;;;20.05;3.78;;;;;;;28.07;37.00;100203.40;129666;1093;114351;-66
2021/07/09 11:09:14;;;;;;;10.40;3.15;;;;;;;28.09;37.75;100201.88;130041;1092;22549;-66
2021/07/09 11:11:52;;;;;;;13.05;2.88;;;;;;;28.12;37.31;100203.14;130036;1093;22545;-66
2021/07/09 11:14:34;;;;;;;2.65;2.43;;;;;;;28.16;35.34;100201.23;129904;1093;113895;-65
2021/07/09 11:17:16;;;;;;;3.70;2.13;;;;;;;28.11;34.97;100196.73;130003;1092;22613;-65
2021/07/09 11:19:51;;;;;;;3.03;2.33;;;;;;;28.06;35.96;100196.16;129662;1093;113693;-65
2021/07/09 11:22:31;;;;;;;3.80;2.40;;;;;;;28.06;36.92;100190.56;129990;1093;22564;-64
2021/07/09 11:25:06;;;;;;;7.60;2.20;;;;;;;28.06;35.53;100190.56;129808;1092;113846;-65
2021/07/09 11:27:43;;;;;;;4.20;2.50;;;;;;;28.07;35.64;100184.60;129798;1092;22559;-64
2021/07/09 11:30:17;;;;;;;5.05;2.50;;;;;;;28.07;36.80;100186.59;129643;1092;114178;-64
2021/07/09 11:32:46;;;;;;;5.13;2.73;;;;;;;28.06;35.94;100182.97;129761;1093;23975;-65